createdAt,value
2018-07-06T00:02:02.486Z,65.47
2018-07-06T00:06:17.222Z,64.52
2018-07-06T00:10:33.006Z,64.98
2018-07-06T00:14:47.729Z,65.27
2018-07-06T00:19:04.457Z,64.25
2018-07-06T00:23:20.466Z,64.83
2018-07-06T00:27:37.261Z,65.22
2018-07-06T00:31:51.925Z,64.33
2018-07-06T00:36:07.721Z,64.58
2018-07-06T00:40:23.436Z,64.44
2018-07-06T00:44:39.357Z,64.25
2018-07-06T00:48:56.955Z,64.28
2018-07-06T00:53:13.738Z,63.39
2018-07-06T00:57:28.455Z,64.01
2018-07-06T01:01:43.307Z,64.14
2018-07-06T01:05:58.971Z,63.46
2018-07-06T01:10:13.724Z,63.63
2018-07-06T01:14:30.380Z,63.34
2018-07-06T01:18:45.218Z,63.24
2018-07-06T01:22:59.954Z,63.02
2018-07-06T01:27:15.812Z,63.37
2018-07-06T01:31:30.782Z,63.27
2018-07-06T01:35:45.449Z,63.15
2018-07-06T01:40:00.289Z,63.26
2018-07-06T01:44:15.937Z,63.10
2018-07-06T01:48:31.768Z,62.88
2018-07-06T01:52:47.546Z,62.45
2018-07-06T01:57:02.049Z,62.70
2018-07-06T02:01:16.629Z,62.67
2018-07-06T02:05:35.180Z,62.55
2018-07-06T02:09:52.014Z,61.62
2018-07-06T02:14:06.674Z,62.30
2018-07-06T02:18:23.399Z,61.60
2018-07-06T02:22:38.090Z,61.69
2018-07-06T02:26:54.268Z,61.56
2018-07-06T02:31:08.982Z,61.02
2018-07-06T02:35:23.753Z,61.43
2018-07-06T02:39:38.486Z,61.57
2018-07-06T02:43:53.348Z,61.71
2018-07-06T02:48:10.243Z,60.86
2018-07-06T02:52:25.964Z,60.90
2018-07-06T02:56:40.687Z,61.76
2018-07-06T03:00:55.333Z,61.26
2018-07-06T03:05:13.427Z,60.85
2018-07-06T03:09:28.093Z,60.99
2018-07-06T03:13:42.901Z,61.13
2018-07-06T03:17:57.476Z,61.52
2018-07-06T03:22:14.198Z,61.33
2018-07-06T03:26:28.842Z,60.66
2018-07-06T03:30:43.598Z,61.44
2018-07-06T03:34:59.309Z,61.18
2018-07-06T03:39:13.928Z,61.20
2018-07-06T03:43:28.659Z,60.99
2018-07-06T03:47:43.241Z,60.61
2018-07-06T03:51:57.987Z,61.28
2018-07-06T03:56:12.678Z,60.81
2018-07-06T04:00:28.300Z,61.03
2018-07-06T04:04:42.937Z,61.02
2018-07-06T04:08:57.616Z,60.77
2018-07-06T04:13:13.781Z,60.41
2018-07-06T04:17:28.324Z,61.23
2018-07-06T04:21:48.356Z,60.94
2018-07-06T04:26:03.132Z,61.14
2018-07-06T04:30:17.825Z,60.40
2018-07-06T04:34:32.480Z,60.74
2018-07-06T04:38:47.145Z,60.23
2018-07-06T04:43:01.856Z,61.04
2018-07-06T04:47:16.589Z,60.92
2018-07-06T04:51:31.239Z,59.80
2018-07-06T04:55:45.930Z,60.37
2018-07-06T05:00:00.642Z,60.62
2018-07-06T05:04:15.371Z,59.70
2018-07-06T05:08:30.189Z,60.03
2018-07-06T05:12:44.750Z,59.96
2018-07-06T05:16:59.520Z,59.89
2018-07-06T05:21:14.177Z,60.06
2018-07-06T05:25:29.193Z,60.24
2018-07-06T05:29:43.969Z,60.21
2018-07-06T05:33:58.720Z,59.36
2018-07-06T05:38:13.569Z,59.79
2018-07-06T05:42:28.241Z,59.99
2018-07-06T05:46:42.996Z,60.39
2018-07-06T05:50:57.682Z,59.08
2018-07-06T06:00:01.033Z,58.96
2018-07-06T09:39:18.167Z,59.43
2018-07-06T09:43:21.483Z,60.87
2018-07-06T09:47:25.339Z,59.34
2018-07-06T09:51:28.822Z,60.04
2018-07-06T09:55:32.255Z,60.29
2018-07-06T10:10:32.275Z,62.53
2018-07-06T10:14:35.711Z,62.77
2018-07-06T10:18:40.285Z,62.93
2018-07-06T10:22:43.833Z,62.93
2018-07-06T10:26:48.282Z,63.59
2018-07-06T10:32:04.164Z,63.36
2018-07-06T10:36:07.629Z,64.06
2018-07-06T10:40:11.057Z,63.02
2018-07-06T10:44:14.445Z,62.69
2018-07-06T10:48:17.937Z,63.06
2018-07-06T10:52:21.337Z,64.14
2018-07-06T10:56:24.738Z,63.34
2018-07-06T11:00:28.098Z,63.70
2018-07-06T11:04:31.481Z,63.48
2018-07-06T11:08:34.885Z,63.03
2018-07-06T11:12:38.279Z,64.02
2018-07-06T11:16:41.689Z,63.75
2018-07-06T11:20:45.093Z,63.66
2018-07-06T11:24:48.537Z,63.16
2018-07-06T11:28:51.908Z,63.64
2018-07-06T11:32:55.305Z,63.03
2018-07-06T11:36:58.742Z,63.29
2018-07-06T14:21:22.073Z,56.65
2018-07-06T14:25:25.587Z,56.71
2018-07-06T14:29:29.373Z,56.62
2018-07-06T14:33:32.864Z,56.72
2018-07-06T14:37:36.390Z,57.63
2018-07-06T14:41:39.822Z,56.95
2018-07-06T14:45:43.221Z,56.90
2018-07-06T14:49:46.633Z,56.71
2018-07-06T14:53:50.061Z,57.50
2018-07-06T14:57:53.480Z,56.75
2018-07-06T15:01:56.911Z,56.96
2018-07-06T15:06:00.320Z,56.42
2018-07-06T15:10:03.707Z,56.01
2018-07-06T15:14:07.153Z,56.50
2018-07-06T15:18:10.690Z,57.09
2018-07-06T15:22:14.075Z,55.82
2018-07-06T15:26:17.505Z,55.62
2018-07-06T15:30:20.925Z,55.32
2018-07-06T15:34:24.377Z,55.28
2018-07-06T15:38:27.818Z,56.18
2018-07-06T15:42:31.269Z,54.62
2018-07-06T15:46:34.714Z,55.21
2018-07-06T15:50:38.311Z,55.99
2018-07-06T15:54:41.736Z,55.03
2018-07-06T15:58:45.189Z,54.92
2018-07-06T16:02:49.619Z,54.49
2018-07-06T16:06:53.190Z,55.49
2018-07-06T16:10:56.713Z,55.46
2018-07-06T16:15:00.169Z,55.31
2018-07-06T16:19:04.734Z,55.84
2018-07-06T16:23:09.316Z,55.29
2018-07-06T16:27:13.813Z,55.09
2018-07-06T16:31:17.381Z,55.59
2018-07-06T16:35:20.949Z,55.61
2018-07-06T16:39:24.448Z,55.44
2018-07-06T16:43:27.946Z,55.87
2018-07-06T16:47:31.728Z,56.10
2018-07-06T16:51:35.260Z,56.14
2018-07-06T16:55:38.956Z,56.25
2018-07-06T16:59:42.419Z,56.25
2018-07-06T17:03:45.873Z,56.42
2018-07-06T17:07:49.332Z,56.83
2018-07-06T17:11:52.841Z,58.48
2018-07-06T17:15:56.449Z,57.48
2018-07-06T17:20:01.670Z,58.96
2018-07-06T17:24:05.133Z,58.21
2018-07-06T17:32:46.384Z,58.42
2018-07-06T17:36:49.943Z,58.74
2018-07-06T17:40:53.337Z,59.20
2018-07-06T17:44:56.813Z,59.25
2018-07-06T17:49:00.806Z,58.58
2018-07-06T17:53:05.558Z,59.10
2018-07-06T17:57:08.960Z,59.00
2018-07-06T18:01:12.531Z,60.19
2018-07-06T18:05:15.995Z,60.10
2018-07-06T18:09:19.531Z,60.58
2018-07-06T18:13:23.016Z,61.72
2018-07-06T18:17:26.662Z,61.83
2018-07-06T18:21:30.181Z,63.06
2018-07-06T18:25:33.780Z,63.99
2018-07-06T18:29:37.544Z,66.70
2018-07-06T18:33:41.040Z,67.14
2018-07-06T18:37:44.530Z,68.12
2018-07-06T18:41:48.038Z,68.85
2018-07-06T18:45:51.560Z,68.88
2018-07-06T18:49:54.990Z,69.54
2018-07-06T18:53:58.424Z,69.78
2018-07-06T18:58:01.874Z,69.11
2018-07-06T19:02:05.411Z,70.00
2018-07-06T19:06:08.908Z,69.91
2018-07-06T19:10:12.481Z,70.11
2018-07-06T19:14:16.330Z,70.75
2018-07-06T19:22:22.448Z,71.43
2018-07-06T19:26:25.973Z,71.34
2018-07-06T19:30:29.492Z,71.67
2018-07-06T19:34:33.015Z,71.15
2018-07-06T19:38:36.516Z,71.35
2018-07-06T19:42:39.955Z,71.59
2018-07-06T19:46:43.747Z,71.89
2018-07-06T19:50:48.440Z,71.75
2018-07-06T19:54:51.915Z,71.88
2018-07-06T19:58:55.419Z,72.50
2018-07-06T20:02:58.855Z,72.18
2018-07-06T20:07:05.902Z,71.95
